createdAt,value
2019-05-10T00:00:43.719Z,12.33
2019-05-10T00:06:04.843Z,12.32
2019-05-10T00:11:33.557Z,12.46
2019-05-10T00:16:37.882Z,12.53
2019-05-10T00:21:41.094Z,12.67
2019-05-10T00:26:44.260Z,12.58
2019-05-10T00:31:46.865Z,12.37
2019-05-10T00:36:50.262Z,12.33
2019-05-10T00:41:53.709Z,12.12
2019-05-10T00:46:56.632Z,12.10
2019-05-10T00:51:59.632Z,12.22
2019-05-10T00:57:02.797Z,12.15
2019-05-10T01:02:05.359Z,12.14
2019-05-10T01:07:08.706Z,12.00
2019-05-10T01:12:12.059Z,12.12
2019-05-10T01:17:15.554Z,12.12
2019-05-10T01:22:18.481Z,11.82
2019-05-10T01:27:21.426Z,11.82
2019-05-10T01:32:24.244Z,11.86
2019-05-10T01:37:27.201Z,11.71
2019-05-10T01:42:30.382Z,11.61
2019-05-10T01:47:35.087Z,11.41
2019-05-10T01:52:38.347Z,11.60
2019-05-10T01:57:41.064Z,11.75
2019-05-10T02:02:44.666Z,11.76
2019-05-10T02:07:47.570Z,11.71
2019-05-10T02:12:51.242Z,11.78
2019-05-10T02:17:54.649Z,11.80
2019-05-10T02:22:57.611Z,11.85
2019-05-10T02:28:00.824Z,11.85
2019-05-10T02:33:04.183Z,11.77
2019-05-10T02:38:07.039Z,11.79
2019-05-10T02:43:10.667Z,11.65
2019-05-10T02:48:14.157Z,11.67
2019-05-10T02:53:17.577Z,11.63
2019-05-10T02:58:20.505Z,11.49
2019-05-10T03:03:28.211Z,11.56
2019-05-10T03:08:48.325Z,11.45
2019-05-10T03:13:52.145Z,11.38
2019-05-10T03:18:56.060Z,11.32
2019-05-10T03:23:59.260Z,11.32
2019-05-10T03:29:02.080Z,11.35
2019-05-10T03:34:05.049Z,11.24
2019-05-10T03:39:08.387Z,11.22
2019-05-10T03:44:11.606Z,11.28
2019-05-10T03:49:14.630Z,11.41
2019-05-10T03:54:17.323Z,11.40
2019-05-10T03:59:20.514Z,11.33
2019-05-10T04:04:23.415Z,11.38
2019-05-10T04:09:26.791Z,11.56
2019-05-10T04:14:30.040Z,11.62
2019-05-10T04:19:33.454Z,11.60
2019-05-10T04:24:37.185Z,11.66
2019-05-10T04:29:42.134Z,11.70
2019-05-10T04:34:45.337Z,11.65
2019-05-10T04:39:48.944Z,11.63
2019-05-10T04:44:53.408Z,11.96
2019-05-10T04:49:56.921Z,12.15
2019-05-10T04:54:59.975Z,12.10
2019-05-10T05:00:02.780Z,12.39
2019-05-10T05:05:06.034Z,12.44
2019-05-10T05:10:09.136Z,12.65
2019-05-10T05:15:13.728Z,12.87
2019-05-10T05:20:16.996Z,13.00
2019-05-10T05:25:22.143Z,12.90
2019-05-10T05:30:26.073Z,12.89
2019-05-10T05:35:29.307Z,12.83
2019-05-10T05:40:32.141Z,12.58
2019-05-10T05:45:35.664Z,12.62
2019-05-10T05:50:39.057Z,12.62
2019-05-10T05:55:42.244Z,12.40
2019-05-10T06:00:46.558Z,12.38
2019-05-10T06:05:49.759Z,12.36
2019-05-10T06:10:57.761Z,12.27
2019-05-10T06:16:00.064Z,12.13
2019-05-10T06:21:02.585Z,12.00
2019-05-10T06:26:06.210Z,11.82
2019-05-10T06:31:10.274Z,11.64
2019-05-10T06:36:13.634Z,11.69
2019-05-10T06:41:19.117Z,11.62
2019-05-10T06:46:23.585Z,11.70
2019-05-10T06:51:27.797Z,11.72
2019-05-10T06:56:30.960Z,11.83
2019-05-10T07:01:38.503Z,11.75
2019-05-10T07:06:40.377Z,11.76
2019-05-10T07:11:43.750Z,11.80
2019-05-10T07:16:48.528Z,11.79
2019-05-10T07:21:52.014Z,12.03
2019-05-10T07:26:56.489Z,12.05
2019-05-10T07:32:00.690Z,12.12
2019-05-10T07:37:03.715Z,12.30
2019-05-10T07:42:09.037Z,12.39
2019-05-10T07:47:11.980Z,12.42
2019-05-10T07:52:15.211Z,12.45
2019-05-10T07:57:24.108Z,12.76
2019-05-10T08:02:23.434Z,12.64
2019-05-10T08:07:29.256Z,13.05
2019-05-10T08:12:35.130Z,12.84
2019-05-10T08:17:41.017Z,12.96
2019-05-10T08:22:45.953Z,13.00
2019-05-10T08:27:50.528Z,13.25
2019-05-10T08:32:52.704Z,12.95
2019-05-10T08:37:56.269Z,12.74
2019-05-10T08:43:04.822Z,12.56
2019-05-10T08:48:07.068Z,12.58
2019-05-10T08:53:16.082Z,12.96
2019-05-10T08:58:23.909Z,13.79
2019-05-10T09:03:22.730Z,13.35
2019-05-10T09:08:28.549Z,13.17
2019-05-10T09:13:37.239Z,13.51
2019-05-10T09:18:41.380Z,13.28
2019-05-10T09:23:42.860Z,13.12
2019-05-10T09:28:57.574Z,13.01
2019-05-10T09:34:01.955Z,12.90
2019-05-10T09:39:09.221Z,12.85
2019-05-10T09:44:13.075Z,13.00
2019-05-10T09:49:18.567Z,13.52
2019-05-10T09:54:23.137Z,13.63
2019-05-10T09:59:27.828Z,13.78
2019-05-10T10:04:30.962Z,13.26
2019-05-10T10:09:41.964Z,13.03
2019-05-10T10:14:43.139Z,13.07
2019-05-10T10:19:43.938Z,13.17
2019-05-10T10:24:48.928Z,12.96
2019-05-10T10:29:52.565Z,12.75
2019-05-10T10:34:57.687Z,12.74
2019-05-10T10:40:05.489Z,12.37
2019-05-10T10:45:07.411Z,11.95
2019-05-10T10:50:13.404Z,11.87
2019-05-10T10:55:18.693Z,12.05
2019-05-10T11:00:32.919Z,11.99
2019-05-10T11:05:36.430Z,12.24
2019-05-10T11:10:40.480Z,12.41
2019-05-10T11:15:43.958Z,12.75
2019-05-10T11:20:49.319Z,12.96
2019-05-10T11:25:56.495Z,13.31
2019-05-10T11:30:56.684Z,13.37
2019-05-10T11:36:04.059Z,13.06
2019-05-10T11:41:06.989Z,12.61
2019-05-10T11:46:08.757Z,12.47
2019-05-10T11:51:17.133Z,12.15
2019-05-10T11:56:16.528Z,12.21
2019-05-10T12:01:22.220Z,12.31
2019-05-10T12:06:25.488Z,12.23
2019-05-10T12:11:33.556Z,12.31
2019-05-10T12:16:33.783Z,12.81
2019-05-10T12:21:36.761Z,13.07
2019-05-10T12:31:47.616Z,12.90
2019-05-10T12:36:51.981Z,12.84
2019-05-10T12:41:55.441Z,12.67
2019-05-10T12:47:01.162Z,12.66
2019-05-10T12:52:03.472Z,12.51
2019-05-10T12:57:07.045Z,12.55
2019-05-10T13:02:11.213Z,12.34
2019-05-10T13:07:14.533Z,12.24
2019-05-10T13:12:17.875Z,12.35
2019-05-10T13:17:21.076Z,12.29
2019-05-10T13:22:24.644Z,12.36
2019-05-10T13:27:29.250Z,12.30
2019-05-10T13:32:32.037Z,12.38
2019-05-10T13:37:35.467Z,12.17
2019-05-10T13:42:43.387Z,12.34
2019-05-10T13:47:43.922Z,11.75
2019-05-10T13:52:46.850Z,11.54
2019-05-10T13:57:53.876Z,11.89
2019-05-10T14:02:55.734Z,11.83
2019-05-10T14:07:58.913Z,12.01
2019-05-10T14:13:04.123Z,11.93
2019-05-10T14:18:07.300Z,11.82
2019-05-10T14:23:11.249Z,11.62
2019-05-10T14:28:15.616Z,11.60
2019-05-10T14:33:19.575Z,11.66
2019-05-10T14:38:23.300Z,11.64
2019-05-10T14:43:26.789Z,11.51
2019-05-10T14:48:31.195Z,11.69
2019-05-10T14:53:35.788Z,11.58
2019-05-10T14:58:38.991Z,11.52
2019-05-10T15:03:46.105Z,11.49
2019-05-10T15:08:47.685Z,11.62
2019-05-10T15:13:51.315Z,11.69
2019-05-10T15:18:55.027Z,11.77
2019-05-10T15:24:00.976Z,11.79
2019-05-10T15:29:03.582Z,11.77
2019-05-10T15:34:06.873Z,11.83
2019-05-10T15:39:10.200Z,11.71
2019-05-10T15:44:13.539Z,11.73
2019-05-10T15:49:22.735Z,11.71
2019-05-10T15:54:21.560Z,11.83
2019-05-10T15:59:25.123Z,11.82
2019-05-10T16:04:27.660Z,11.67
2019-05-10T16:09:30.776Z,11.67
2019-05-10T16:14:39.111Z,11.92
2019-05-10T16:19:39.369Z,11.83
2019-05-10T16:24:42.892Z,11.82
2019-05-10T16:29:46.648Z,11.71
2019-05-10T16:34:49.561Z,11.80
2019-05-10T16:39:53.189Z,11.75
2019-05-10T16:44:56.738Z,12.00
2019-05-10T16:50:00.323Z,12.12
2019-05-10T16:55:05.411Z,12.35
2019-05-10T17:00:10.663Z,12.94
2019-05-10T17:05:15.541Z,13.07
2019-05-10T17:10:19.655Z,12.58
2019-05-10T17:15:23.183Z,12.97
2019-05-10T17:20:26.367Z,13.26
2019-05-10T17:25:29.714Z,13.76
2019-05-10T17:30:33.012Z,13.01
2019-05-10T17:35:36.656Z,12.92
2019-05-10T17:40:42.275Z,13.04
2019-05-10T17:45:46.689Z,13.00
2019-05-10T17:50:50.233Z,12.47
2019-05-10T17:55:55.749Z,12.01
2019-05-10T18:00:58.492Z,11.72
2019-05-10T18:06:02.078Z,11.53
2019-05-10T18:11:06.473Z,11.50
2019-05-10T18:16:11.006Z,11.35
2019-05-10T18:21:15.793Z,11.40
2019-05-10T18:26:19.439Z,11.20
2019-05-10T18:31:23.129Z,11.16
2019-05-10T18:36:49.954Z,10.97
2019-05-10T18:41:31.295Z,10.95
2019-05-10T18:46:34.078Z,11.06
2019-05-10T18:51:37.031Z,10.82
2019-05-10T18:56:40.594Z,10.67
2019-05-10T19:01:44.116Z,10.64
2019-05-10T19:06:49.990Z,10.42
2019-05-10T19:11:54.181Z,10.32
2019-05-10T19:16:57.706Z,10.26
2019-05-10T19:22:03.157Z,10.17
2019-05-10T19:27:09.128Z,9.99
2019-05-10T19:32:18.223Z,9.86
2019-05-10T19:37:28.854Z,9.71
2019-05-10T19:42:23.023Z,9.53
2019-05-10T19:47:26.273Z,9.49
2019-05-10T19:52:29.200Z,9.48
2019-05-10T19:57:32.441Z,9.37
2019-05-10T20:02:36.355Z,9.37
2019-05-10T20:07:45.869Z,9.37
2019-05-10T20:12:45.066Z,9.29
2019-05-10T20:17:48.476Z,9.21
2019-05-10T20:22:52.303Z,9.15
2019-05-10T20:27:55.650Z,9.06
2019-05-10T20:32:59.252Z,8.98
2019-05-10T20:38:02.735Z,8.92
2019-05-10T20:43:05.287Z,8.71
2019-05-10T20:48:08.636Z,8.64
2019-05-10T20:53:11.506Z,8.55
2019-05-10T20:58:14.696Z,8.52
2019-05-10T21:03:18.233Z,8.45
2019-05-10T21:08:21.436Z,8.17
2019-05-10T21:13:25.168Z,8.05
2019-05-10T21:18:28.493Z,8.07
2019-05-10T21:23:32.150Z,8.13
2019-05-10T21:28:35.099Z,8.09
2019-05-10T21:33:38.598Z,8.06
2019-05-10T21:38:41.955Z,8.08
2019-05-10T21:43:45.322Z,8.06
2019-05-10T21:48:48.840Z,7.99
2019-05-10T21:53:52.625Z,8.03
2019-05-10T21:58:55.832Z,7.68
2019-05-10T22:03:59.104Z,7.76
2019-05-10T22:09:02.174Z,7.78
2019-05-10T22:14:05.025Z,7.57
2019-05-10T22:19:08.640Z,7.25
2019-05-10T22:24:11.635Z,7.34
2019-05-10T22:29:15.191Z,7.39
2019-05-10T22:34:18.064Z,7.47
2019-05-10T22:39:21.639Z,7.40
2019-05-10T22:44:25.267Z,7.24
2019-05-10T22:49:28.599Z,7.12
2019-05-10T22:54:33.709Z,7.11
2019-05-10T22:59:37.313Z,7.04
2019-05-10T23:04:40.451Z,6.98
2019-05-10T23:09:43.976Z,6.83
2019-05-10T23:14:47.260Z,6.86
2019-05-10T23:19:50.213Z,6.90
2019-05-10T23:24:53.643Z,6.83
2019-05-10T23:29:56.835Z,6.82
2019-05-10T23:35:01.063Z,6.70
2019-05-10T23:40:04.559Z,6.63
2019-05-10T23:45:08.537Z,6.61
2019-05-10T23:50:12.179Z,6.57
2019-05-10T23:55:15.442Z,6.26
